sensor_id;sensor_type;location;lat;lon;timestamp;pressure;altitude;pressure_sealevel;temperature;humidity
1401;BME280;46518;48.842;8.926;2023-05-02T00:00:41;97233.44;;;10.84;97.63
1401;BME280;46518;48.842;8.926;2023-05-02T00:03:11;97230.13;;;10.55;99.24
1401;BME280;46518;48.842;8.926;2023-05-02T00:05:41;97224.28;;;10.70;98.91
1401;BME280;46518;48.842;8.926;2023-05-02T00:08:10;97225.56;;;10.67;97.58
1401;BME280;46518;48.842;8.926;2023-05-02T00:10:38;97222.94;;;10.50;98.96
1401;BME280;46518;48.842;8.926;2023-05-02T00:13:06;97229.34;;;10.38;98.92
1401;BME280;46518;48.842;8.926;2023-05-02T00:15:35;97218.19;;;10.47;99.27
1401;BME280;46518;48.842;8.926;2023-05-02T00:18:03;97226.97;;;10.36;99.13
1401;BME280;46518;48.842;8.926;2023-05-02T00:20:31;97230.38;;;10.20;100.00
1401;BME280;46518;48.842;8.926;2023-05-02T00:23:01;97224.41;;;10.24;99.87
1401;BME280;46518;48.842;8.926;2023-05-02T00:25:29;97228.94;;;10.12;100.00
1401;BME280;46518;48.842;8.926;2023-05-02T00:27:57;97227.25;;;10.06;100.00
1401;BME280;46518;48.842;8.926;2023-05-02T00:30:25;97229.16;;;10.10;100.00
1401;BME280;46518;48.842;8.926;2023-05-02T00:32:54;97229.53;;;9.85;100.00
1401;BME280;46518;48.842;8.926;2023-05-02T00:35:22;97229.28;;;9.70;100.00
1401;BME280;46518;48.842;8.926;2023-05-02T00:37:50;97235.88;;;9.56;100.00
1401;BME280;46518;48.842;8.926;2023-05-02T00:40:20;97227.63;;;9.64;100.00
1401;BME280;46518;48.842;8.926;2023-05-02T00:42:48;97230.56;;;9.67;100.00
1401;BME280;46518;48.842;8.926;2023-05-02T00:45:17;97238.53;;;9.72;100.00
1401;BME280;46518;48.842;8.926;2023-05-02T00:47:45;97240.28;;;9.67;100.00
1401;BME280;46518;48.842;8.926;2023-05-02T00:50:14;97233.38;;;9.78;100.00
1401;BME280;46518;48.842;8.926;2023-05-02T00:52:42;97242.34;;;9.65;100.00
1401;BME280;46518;48.842;8.926;2023-05-02T00:55:10;97232.25;;;9.45;100.00
1401;BME280;46518;48.842;8.926;2023-05-02T00:57:40;97231.00;;;9.47;100.00
1401;BME280;46518;48.842;8.926;2023-05-02T01:00:09;97232.28;;;9.33;100.00
1401;BME280;46518;48.842;8.926;2023-05-02T01:02:47;97235.53;;;9.23;100.00
1401;BME280;46518;48.842;8.926;2023-05-02T01:05:20;97237.84;;;9.08;100.00
1401;BME280;46518;48.842;8.926;2023-05-02T01:07:59;97230.78;;;9.09;100.00
1401;BME280;46518;48.842;8.926;2023-05-02T01:10:39;97231.72;;;9.02;100.00
1401;BME280;46518;48.842;8.926;2023-05-02T01:13:17;97244.72;;;9.09;100.00
1401;BME280;46518;48.842;8.926;2023-05-02T01:15:48;97236.28;;;9.07;100.00
1401;BME280;46518;48.842;8.926;2023-05-02T01:18:20;97238.88;;;9.19;100.00
1401;BME280;46518;48.842;8.926;2023-05-02T01:20:53;97236.88;;;9.26;100.00
1401;BME280;46518;48.842;8.926;2023-05-02T01:23:30;97243.09;;;9.20;100.00
1401;BME280;46518;48.842;8.926;2023-05-02T01:26:14;97243.53;;;9.28;100.00
1401;BME280;46518;48.842;8.926;2023-05-02T01:28:54;97242.59;;;9.23;100.00
1401;BME280;46518;48.842;8.926;2023-05-02T01:31:26;97238.41;;;9.22;100.00
1401;BME280;46518;48.842;8.926;2023-05-02T01:33:57;97240.44;;;9.20;100.00
1401;BME280;46518;48.842;8.926;2023-05-02T01:36:28;97241.25;;;9.20;100.00
1401;BME280;46518;48.842;8.926;2023-05-02T01:38:59;97238.09;;;9.06;100.00
1401;BME280;46518;48.842;8.926;2023-05-02T01:41:30;97240.16;;;9.04;100.00
1401;BME280;46518;48.842;8.926;2023-05-02T01:44:01;97246.06;;;9.12;100.00
1401;BME280;46518;48.842;8.926;2023-05-02T01:46:32;97242.78;;;8.93;100.00
1401;BME280;46518;48.842;8.926;2023-05-02T01:49:02;97241.63;;;9.00;100.00
1401;BME280;46518;48.842;8.926;2023-05-02T01:51:34;97245.53;;;8.98;100.00
1401;BME280;46518;48.842;8.926;2023-05-02T01:54:04;97252.09;;;9.24;100.00
1401;BME280;46518;48.842;8.926;2023-05-02T01:56:35;97246.19;;;9.05;100.00
1401;BME280;46518;48.842;8.926;2023-05-02T01:59:09;97255.34;;;9.02;100.00
1401;BME280;46518;48.842;8.926;2023-05-02T02:01:39;97251.47;;;8.93;100.00
1401;BME280;46518;48.842;8.926;2023-05-02T02:04:11;97252.88;;;8.84;100.00
1401;BME280;46518;48.842;8.926;2023-05-02T02:06:45;97249.09;;;8.92;100.00
1401;BME280;46518;48.842;8.926;2023-05-02T02:09:15;97256.81;;;8.98;100.00
1401;BME280;46518;48.842;8.926;2023-05-02T02:11:46;97256.38;;;9.01;100.00
1401;BME280;46518;48.842;8.926;2023-05-02T02:14:21;97254.34;;;8.92;100.00
1401;BME280;46518;48.842;8.926;2023-05-02T02:16:54;97258.06;;;9.07;100.00
1401;BME280;46518;48.842;8.926;2023-05-02T02:19:23;97263.44;;;9.01;100.00
1401;BME280;46518;48.842;8.926;2023-05-02T02:21:53;97268.34;;;8.97;100.00
1401;BME280;46518;48.842;8.926;2023-05-02T02:24:23;97264.47;;;9.12;100.00
1401;BME280;46518;48.842;8.926;2023-05-02T02:26:53;97268.78;;;9.06;100.00
1401;BME280;46518;48.842;8.926;2023-05-02T02:29:22;97271.75;;;9.21;100.00
1401;BME280;46518;48.842;8.926;2023-05-02T02:31:51;97274.28;;;9.16;100.00
1401;BME280;46518;48.842;8.926;2023-05-02T02:34:19;97276.53;;;9.24;100.00
1401;BME280;46518;48.842;8.926;2023-05-02T02:36:53;97280.06;;;9.18;100.00
1401;BME280;46518;48.842;8.926;2023-05-02T02:39:32;97279.63;;;9.21;100.00
1401;BME280;46518;48.842;8.926;2023-05-02T02:42:09;97285.41;;;9.35;100.00
1401;BME280;46518;48.842;8.926;2023-05-02T02:44:51;97291.78;;;9.39;100.00
1401;BME280;46518;48.842;8.926;2023-05-02T02:47:26;97288.56;;;9.49;100.00
1401;BME280;46518;48.842;8.926;2023-05-02T02:50:07;97292.41;;;9.58;100.00
1401;BME280;46518;48.842;8.926;2023-05-02T02:52:52;97299.78;;;9.73;100.00
1401;BME280;46518;48.842;8.926;2023-05-02T02:55:30;97301.38;;;9.74;100.00
1401;BME280;46518;48.842;8.926;2023-05-02T02:58:09;97305.69;;;9.80;100.00
1401;BME280;46518;48.842;8.926;2023-05-02T03:00:41;97312.78;;;9.80;100.00
1401;BME280;46518;48.842;8.926;2023-05-02T03:03:10;97311.03;;;9.85;100.00
1401;BME280;46518;48.842;8.926;2023-05-02T03:05:42;97314.63;;;9.79;100.00
1401;BME280;46518;48.842;8.926;2023-05-02T03:08:11;97315.97;;;9.82;100.00
1401;BME280;46518;48.842;8.926;2023-05-02T03:10:40;97315.97;;;9.82;100.00
1401;BME280;46518;48.842;8.926;2023-05-02T03:13:09;97319.00;;;9.74;100.00
1401;BME280;46518;48.842;8.926;2023-05-02T03:16:09;97326.78;;;9.68;100.00
1401;BME280;46518;48.842;8.926;2023-05-02T03:18:40;97328.16;;;9.71;100.00
1401;BME280;46518;48.842;8.926;2023-05-02T03:21:08;97333.75;;;9.63;100.00
1401;BME280;46518;48.842;8.926;2023-05-02T03:23:37;97334.22;;;9.60;100.00
1401;BME280;46518;48.842;8.926;2023-05-02T03:26:05;97338.00;;;9.64;100.00
1401;BME280;46518;48.842;8.926;2023-05-02T03:28:34;97338.69;;;9.59;100.00
1401;BME280;46518;48.842;8.926;2023-05-02T03:31:05;97335.00;;;9.60;100.00
1401;BME280;46518;48.842;8.926;2023-05-02T03:33:37;97340.50;;;9.59;100.00
1401;BME280;46518;48.842;8.926;2023-05-02T03:36:06;97345.31;;;9.62;100.00
1401;BME280;46518;48.842;8.926;2023-05-02T03:38:34;97343.78;;;9.66;100.00
1401;BME280;46518;48.842;8.926;2023-05-02T03:41:06;97350.19;;;9.70;100.00
1401;BME280;46518;48.842;8.926;2023-05-02T03:43:34;97353.38;;;9.72;100.00
1401;BME280;46518;48.842;8.926;2023-05-02T03:46:06;97363.88;;;9.72;100.00
1401;BME280;46518;48.842;8.926;2023-05-02T03:48:38;97357.19;;;9.64;100.00
1401;BME280;46518;48.842;8.926;2023-05-02T03:51:06;97364.69;;;9.72;100.00
1401;BME280;46518;48.842;8.926;2023-05-02T03:53:41;97364.00;;;9.77;100.00
1401;BME280;46518;48.842;8.926;2023-05-02T03:56:09;97365.47;;;9.73;100.00
1401;BME280;46518;48.842;8.926;2023-05-02T03:58:47;97370.28;;;9.76;100.00
1401;BME280;46518;48.842;8.926;2023-05-02T04:01:21;97368.78;;;9.80;100.00
1401;BME280;46518;48.842;8.926;2023-05-02T04:03:50;97368.34;;;9.71;100.00
1401;BME280;46518;48.842;8.926;2023-05-02T04:06:22;97371.00;;;9.60;100.00
1401;BME280;46518;48.842;8.926;2023-05-02T04:08:56;97366.75;;;9.70;100.00
1401;BME280;46518;48.842;8.926;2023-05-02T04:11:31;97371.88;;;9.77;100.00
1401;BME280;46518;48.842;8.926;2023-05-02T04:14:01;97374.97;;;9.74;100.00
1401;BME280;46518;48.842;8.926;2023-05-02T04:16:31;97377.59;;;9.74;100.00
1401;BME280;46518;48.842;8.926;2023-05-02T04:19:00;97383.09;;;9.72;100.00
1401;BME280;46518;48.842;8.926;2023-05-02T04:21:28;97385.59;;;9.79;100.00
1401;BME280;46518;48.842;8.926;2023-05-02T04:23:57;97385.97;;;9.71;100.00
1401;BME280;46518;48.842;8.926;2023-05-02T04:26:29;97389.00;;;9.80;100.00
1401;BME280;46518;48.842;8.926;2023-05-02T04:29:03;97396.78;;;9.86;100.00
1401;BME280;46518;48.842;8.926;2023-05-02T04:31:33;97385.44;;;9.86;100.00
1401;BME280;46518;48.842;8.926;2023-05-02T04:34:02;97397.13;;;9.78;100.00
1401;BME280;46518;48.842;8.926;2023-05-02T04:36:36;97388.78;;;9.81;100.00
1401;BME280;46518;48.842;8.926;2023-05-02T04:39:05;97386.94;;;9.82;100.00
1401;BME280;46518;48.842;8.926;2023-05-02T04:41:36;97400.00;;;10.05;100.00
1401;BME280;46518;48.842;8.926;2023-05-02T04:44:06;97398.13;;;10.18;100.00
1401;BME280;46518;48.842;8.926;2023-05-02T04:46:37;97398.75;;;10.08;100.00
1401;BME280;46518;48.842;8.926;2023-05-02T04:49:05;97408.09;;;9.87;100.00
1401;BME280;46518;48.842;8.926;2023-05-02T04:51:33;97413.63;;;10.02;100.00
1401;BME280;46518;48.842;8.926;2023-05-02T04:54:01;97413.72;;;10.07;100.00
1401;BME280;46518;48.842;8.926;2023-05-02T04:56:30;97417.44;;;10.23;100.00
1401;BME280;46518;48.842;8.926;2023-05-02T04:58:59;97422.84;;;10.45;100.00
1401;BME280;46518;48.842;8.926;2023-05-02T05:01:27;97435.41;;;10.55;100.00
1401;BME280;46518;48.842;8.926;2023-05-02T05:03:57;97438.72;;;10.50;99.98
1401;BME280;46518;48.842;8.926;2023-05-02T05:06:26;97446.69;;;10.39;99.89
1401;BME280;46518;48.842;8.926;2023-05-02T05:08:56;97450.50;;;10.31;99.50
1401;BME280;46518;48.842;8.926;2023-05-02T05:11:24;97453.81;;;10.26;99.43
1401;BME280;46518;48.842;8.926;2023-05-02T05:17:34;97460.84;;;10.09;99.46
1401;BME280;46518;48.842;8.926;2023-05-02T05:20:06;97459.22;;;10.08;99.75
1401;BME280;46518;48.842;8.926;2023-05-02T05:22:37;97458.63;;;10.18;100.00
1401;BME280;46518;48.842;8.926;2023-05-02T05:25:09;97466.66;;;10.11;99.63
1401;BME280;46518;48.842;8.926;2023-05-02T05:27:37;97467.38;;;10.06;100.00
1401;BME280;46518;48.842;8.926;2023-05-02T05:30:08;97472.91;;;10.22;100.00
1401;BME280;46518;48.842;8.926;2023-05-02T05:32:36;97474.31;;;10.12;99.40
1401;BME280;46518;48.842;8.926;2023-05-02T05:35:07;97480.38;;;10.13;100.00
1401;BME280;46518;48.842;8.926;2023-05-02T05:37:36;97475.19;;;10.18;100.00
1401;BME280;46518;48.842;8.926;2023-05-02T05:40:08;97484.00;;;10.24;99.19
1401;BME280;46518;48.842;8.926;2023-05-02T05:42:39;97487.34;;;10.19;100.00
1401;BME280;46518;48.842;8.926;2023-05-02T05:45:13;97490.28;;;10.23;99.79
1401;BME280;46518;48.842;8.926;2023-05-02T05:47:43;97484.13;;;10.17;99.01
1401;BME280;46518;48.842;8.926;2023-05-02T05:50:13;97490.53;;;10.21;98.97
1401;BME280;46518;48.842;8.926;2023-05-02T05:52:42;97493.59;;;10.18;99.14
1401;BME280;46518;48.842;8.926;2023-05-02T05:55:11;97504.97;;;10.19;99.18
1401;BME280;46518;48.842;8.926;2023-05-02T05:57:39;97501.16;;;10.26;99.72
1401;BME280;46518;48.842;8.926;2023-05-02T06:00:10;97502.66;;;10.34;98.95
1401;BME280;46518;48.842;8.926;2023-05-02T06:02:41;97503.91;;;10.31;98.88
1401;BME280;46518;48.842;8.926;2023-05-02T06:05:18;97508.94;;;10.21;98.31
1401;BME280;46518;48.842;8.926;2023-05-02T06:07:46;97515.31;;;10.25;99.21
1401;BME280;46518;48.842;8.926;2023-05-02T06:10:15;97521.53;;;10.19;98.70
1401;BME280;46518;48.842;8.926;2023-05-02T06:12:43;97517.63;;;10.22;99.52
1401;BME280;46518;48.842;8.926;2023-05-02T06:15:15;97512.38;;;10.22;99.54
1401;BME280;46518;48.842;8.926;2023-05-02T06:17:44;97520.19;;;10.28;99.17
1401;BME280;46518;48.842;8.926;2023-05-02T06:20:14;97524.94;;;10.20;98.96
1401;BME280;46518;48.842;8.926;2023-05-02T06:22:45;97528.38;;;10.20;98.47
1401;BME280;46518;48.842;8.926;2023-05-02T06:25:14;97529.41;;;10.19;98.90
1401;BME280;46518;48.842;8.926;2023-05-02T06:27:42;97529.41;;;10.19;98.56
1401;BME280;46518;48.842;8.926;2023-05-02T06:30:11;97536.53;;;10.19;99.01
1401;BME280;46518;48.842;8.926;2023-05-02T06:32:39;97533.88;;;10.19;98.52
1401;BME280;46518;48.842;8.926;2023-05-02T06:35:10;97544.84;;;10.27;99.65
1401;BME280;46518;48.842;8.926;2023-05-02T06:37:38;97542.69;;;10.36;98.59
1401;BME280;46518;48.842;8.926;2023-05-02T06:40:09;97541.06;;;10.35;98.01
1401;BME280;46518;48.842;8.926;2023-05-02T06:42:37;97548.94;;;10.47;98.08
1401;BME280;46518;48.842;8.926;2023-05-02T06:45:06;97544.06;;;10.39;98.01
1401;BME280;46518;48.842;8.926;2023-05-02T06:47:34;97544.75;;;10.34;98.08
1401;BME280;46518;48.842;8.926;2023-05-02T06:50:02;97559.13;;;10.43;98.63
1401;BME280;46518;48.842;8.926;2023-05-02T06:52:31;97560.72;;;10.44;97.80
1401;BME280;46518;48.842;8.926;2023-05-02T06:54:59;97546.09;;;10.36;98.90
1401;BME280;46518;48.842;8.926;2023-05-02T06:57:29;97569.97;;;10.58;98.49
1401;BME280;46518;48.842;8.926;2023-05-02T06:59:57;97574.31;;;10.53;96.72
1401;BME280;46518;48.842;8.926;2023-05-02T07:02:26;97577.66;;;10.48;97.39
1401;BME280;46518;48.842;8.926;2023-05-02T07:04:54;97585.44;;;10.43;97.82
1401;BME280;46518;48.842;8.926;2023-05-02T07:07:22;97587.72;;;10.51;99.14
1401;BME280;46518;48.842;8.926;2023-05-02T07:09:50;97585.97;;;10.57;97.52
1401;BME280;46518;48.842;8.926;2023-05-02T07:12:19;97588.84;;;10.55;98.19
1401;BME280;46518;48.842;8.926;2023-05-02T07:14:48;97597.50;;;10.68;98.91
1401;BME280;46518;48.842;8.926;2023-05-02T07:17:16;97594.66;;;10.57;99.60
1401;BME280;46518;48.842;8.926;2023-05-02T07:19:45;97600.63;;;10.53;98.72
1401;BME280;46518;48.842;8.926;2023-05-02T07:22:13;97600.78;;;10.46;99.06
1401;BME280;46518;48.842;8.926;2023-05-02T07:24:42;97603.47;;;10.63;99.93
1401;BME280;46518;48.842;8.926;2023-05-02T07:27:11;97605.59;;;10.78;100.00
1401;BME280;46518;48.842;8.926;2023-05-02T07:29:39;97596.38;;;10.64;98.83
1401;BME280;46518;48.842;8.926;2023-05-02T07:32:09;97604.81;;;10.77;98.73
1401;BME280;46518;48.842;8.926;2023-05-02T07:34:37;97604.13;;;10.70;98.84
1401;BME280;46518;48.842;8.926;2023-05-02T07:37:06;97611.59;;;10.73;99.29
1401;BME280;46518;48.842;8.926;2023-05-02T07:39:34;97609.16;;;10.84;99.81
1401;BME280;46518;48.842;8.926;2023-05-02T07:42:02;97611.44;;;10.80;99.34
1401;BME280;46518;48.842;8.926;2023-05-02T07:44:31;97610.16;;;10.83;100.00
1401;BME280;46518;48.842;8.926;2023-05-02T07:47:00;97612.56;;;10.84;100.00
1401;BME280;46518;48.842;8.926;2023-05-02T07:49:30;97617.06;;;11.00;99.56
1401;BME280;46518;48.842;8.926;2023-05-02T07:51:58;97624.31;;;11.22;98.48
1401;BME280;46518;48.842;8.926;2023-05-02T07:54:26;97623.06;;;11.25;97.64
1401;BME280;46518;48.842;8.926;2023-05-02T07:56:54;97615.22;;;11.30;98.23
1401;BME280;46518;48.842;8.926;2023-05-02T07:59:24;97629.72;;;11.15;97.15
1401;BME280;46518;48.842;8.926;2023-05-02T08:01:52;97626.25;;;11.27;96.09
1401;BME280;46518;48.842;8.926;2023-05-02T08:04:20;97629.69;;;11.27;96.02
1401;BME280;46518;48.842;8.926;2023-05-02T08:06:49;97629.06;;;11.37;95.42
1401;BME280;46518;48.842;8.926;2023-05-02T08:09:18;97632.66;;;11.48;95.12
1401;BME280;46518;48.842;8.926;2023-05-02T08:11:46;97636.19;;;11.70;94.04
1401;BME280;46518;48.842;8.926;2023-05-02T08:14:15;97643.25;;;11.81;93.63
1401;BME280;46518;48.842;8.926;2023-05-02T08:16:43;97646.59;;;11.77;94.28
1401;BME280;46518;48.842;8.926;2023-05-02T08:19:14;97634.53;;;11.81;94.26
1401;BME280;46518;48.842;8.926;2023-05-02T08:21:42;97619.19;;;11.44;92.23
1401;BME280;46518;48.842;8.926;2023-05-02T08:24:11;97632.44;;;11.49;93.16
1401;BME280;46518;48.842;8.926;2023-05-02T08:26:39;97639.63;;;11.54;94.68
1401;BME280;46518;48.842;8.926;2023-05-02T08:29:08;97642.09;;;11.60;97.42
1401;BME280;46518;48.842;8.926;2023-05-02T08:31:37;97646.81;;;11.75;97.21
1401;BME280;46518;48.842;8.926;2023-05-02T08:34:06;97640.69;;;11.70;95.28
1401;BME280;46518;48.842;8.926;2023-05-02T08:36:34;97646.97;;;11.52;98.57
1401;BME280;46518;48.842;8.926;2023-05-02T08:39:03;97653.28;;;11.68;96.02
1401;BME280;46518;48.842;8.926;2023-05-02T08:41:35;97655.38;;;11.65;94.29
1401;BME280;46518;48.842;8.926;2023-05-02T08:44:05;97656.63;;;11.46;99.91
1401;BME280;46518;48.842;8.926;2023-05-02T08:46:35;97651.19;;;11.53;100.00
1401;BME280;46518;48.842;8.926;2023-05-02T08:49:04;97647.16;;;11.79;98.17
1401;BME280;46518;48.842;8.926;2023-05-02T08:51:33;97645.75;;;11.88;97.99
1401;BME280;46518;48.842;8.926;2023-05-02T08:54:05;97661.34;;;12.06;94.03
1401;BME280;46518;48.842;8.926;2023-05-02T08:56:36;97658.84;;;12.00;93.19
1401;BME280;46518;48.842;8.926;2023-05-02T08:59:05;97669.31;;;11.95;94.53
1401;BME280;46518;48.842;8.926;2023-05-02T09:01:34;97666.91;;;12.10;96.09
1401;BME280;46518;48.842;8.926;2023-05-02T09:04:03;97663.81;;;12.52;93.56
1401;BME280;46518;48.842;8.926;2023-05-02T09:06:31;97663.53;;;12.92;91.59
1401;BME280;46518;48.842;8.926;2023-05-02T09:09:00;97666.72;;;13.38;87.68
1401;BME280;46518;48.842;8.926;2023-05-02T09:11:29;97654.06;;;13.19;82.56
1401;BME280;46518;48.842;8.926;2023-05-02T09:13:58;97669.47;;;13.05;85.36
1401;BME280;46518;48.842;8.926;2023-05-02T09:16:37;97672.22;;;13.15;84.11
1401;BME280;46518;48.842;8.926;2023-05-02T09:19:06;97667.50;;;13.17;86.54
1401;BME280;46518;48.842;8.926;2023-05-02T09:21:35;97669.66;;;13.20;87.03
1401;BME280;46518;48.842;8.926;2023-05-02T09:24:14;97665.19;;;13.21;83.90
1401;BME280;46518;48.842;8.926;2023-05-02T09:26:55;97669.91;;;13.19;83.01
1401;BME280;46518;48.842;8.926;2023-05-02T09:29:26;97681.47;;;13.34;82.82
1401;BME280;46518;48.842;8.926;2023-05-02T09:31:56;97671.69;;;13.35;79.65
1401;BME280;46518;48.842;8.926;2023-05-02T09:34:24;97672.31;;;13.74;79.49
1401;BME280;46518;48.842;8.926;2023-05-02T09:36:52;97672.53;;;14.00;79.11
1401;BME280;46518;48.842;8.926;2023-05-02T09:39:21;97668.88;;;14.06;76.73
1401;BME280;46518;48.842;8.926;2023-05-02T09:41:52;97665.88;;;14.35;77.24
1401;BME280;46518;48.842;8.926;2023-05-02T09:44:21;97667.16;;;14.70;74.96
1401;BME280;46518;48.842;8.926;2023-05-02T09:46:53;97667.22;;;14.85;70.90
1401;BME280;46518;48.842;8.926;2023-05-02T09:49:38;97664.38;;;14.49;69.37
1401;BME280;46518;48.842;8.926;2023-05-02T09:52:10;97666.97;;;14.39;71.15
1401;BME280;46518;48.842;8.926;2023-05-02T09:54:38;97663.81;;;14.47;75.43
1401;BME280;46518;48.842;8.926;2023-05-02T09:57:06;97660.88;;;14.38;75.44
1401;BME280;46518;48.842;8.926;2023-05-02T09:59:37;97669.53;;;14.23;78.26
1401;BME280;46518;48.842;8.926;2023-05-02T10:02:07;97664.81;;;14.31;77.97
1401;BME280;46518;48.842;8.926;2023-05-02T10:04:37;97661.25;;;14.57;76.03
1401;BME280;46518;48.842;8.926;2023-05-02T10:07:08;97666.69;;;14.78;76.35
1401;BME280;46518;48.842;8.926;2023-05-02T10:09:39;97662.72;;;14.85;72.40
1401;BME280;46518;48.842;8.926;2023-05-02T10:12:13;97662.03;;;15.16;69.64
1401;BME280;46518;48.842;8.926;2023-05-02T10:14:48;97670.03;;;15.31;69.45
1401;BME280;46518;48.842;8.926;2023-05-02T10:17:25;97673.28;;;14.75;73.83
1401;BME280;46518;48.842;8.926;2023-05-02T10:19:57;97680.47;;;14.90;71.26
1401;BME280;46518;48.842;8.926;2023-05-02T10:22:27;97673.81;;;14.77;70.46
1401;BME280;46518;48.842;8.926;2023-05-02T10:24:57;97678.06;;;14.73;66.13
1401;BME280;46518;48.842;8.926;2023-05-02T10:27:28;97669.84;;;14.80;67.70
1401;BME280;46518;48.842;8.926;2023-05-02T10:29:58;97675.47;;;14.94;65.17
1401;BME280;46518;48.842;8.926;2023-05-02T10:32:28;97677.88;;;14.95;67.07
1401;BME280;46518;48.842;8.926;2023-05-02T10:34:56;97680.91;;;14.66;67.28
1401;BME280;46518;48.842;8.926;2023-05-02T10:37:30;97677.19;;;14.25;74.40
1401;BME280;46518;48.842;8.926;2023-05-02T10:40:00;97680.94;;;14.29;71.95
1401;BME280;46518;48.842;8.926;2023-05-02T10:42:29;97674.22;;;14.16;73.30
1401;BME280;46518;48.842;8.926;2023-05-02T10:44:58;97676.09;;;14.16;76.18
1401;BME280;46518;48.842;8.926;2023-05-02T10:47:29;97674.00;;;14.18;76.79
1401;BME280;46518;48.842;8.926;2023-05-02T10:49:59;97673.75;;;14.24;74.51
1401;BME280;46518;48.842;8.926;2023-05-02T10:52:30;97671.38;;;14.23;72.93
1401;BME280;46518;48.842;8.926;2023-05-02T10:55:15;97667.44;;;14.31;72.43
1401;BME280;46518;48.842;8.926;2023-05-02T11:00:45;97665.50;;;14.53;72.50
1401;BME280;46518;48.842;8.926;2023-05-02T11:03:53;97661.69;;;14.92;71.85
1401;BME280;46518;48.842;8.926;2023-05-02T11:06:23;97647.19;;;15.20;69.88
1401;BME280;46518;48.842;8.926;2023-05-02T11:08:51;97658.84;;;15.19;67.33
1401;BME280;46518;48.842;8.926;2023-05-02T11:11:39;97663.84;;;15.10;67.46
1401;BME280;46518;48.842;8.926;2023-05-02T11:14:09;97656.09;;;14.83;69.79
1401;BME280;46518;48.842;8.926;2023-05-02T11:17:07;97659.72;;;14.66;70.49
1401;BME280;46518;48.842;8.926;2023-05-02T11:22:58;97669.53;;;14.23;72.61
1401;BME280;46518;48.842;8.926;2023-05-02T11:25:37;97659.75;;;14.29;70.40
1401;BME280;46518;48.842;8.926;2023-05-02T11:28:07;97656.16;;;14.45;67.79
1401;BME280;46518;48.842;8.926;2023-05-02T11:30:54;97667.66;;;14.66;72.21
1401;BME280;46518;48.842;8.926;2023-05-02T11:33:23;97657.13;;;14.82;70.61
1401;BME280;46518;48.842;8.926;2023-05-02T11:35:51;97662.69;;;14.75;70.46
1401;BME280;46518;48.842;8.926;2023-05-02T11:38:21;97651.78;;;14.66;71.11
1401;BME280;46518;48.842;8.926;2023-05-02T11:40:54;97657.56;;;14.58;69.21
1401;BME280;46518;48.842;8.926;2023-05-02T11:43:24;97654.28;;;14.41;69.26
1401;BME280;46518;48.842;8.926;2023-05-02T11:45:57;97656.50;;;14.59;67.63
1401;BME280;46518;48.842;8.926;2023-05-02T11:48:26;97651.38;;;14.48;69.71
1401;BME280;46518;48.842;8.926;2023-05-02T11:50:56;97651.09;;;14.44;70.76
1401;BME280;46518;48.842;8.926;2023-05-02T11:53:29;97656.47;;;14.54;68.90
1401;BME280;46518;48.842;8.926;2023-05-02T11:56:00;97649.63;;;14.58;70.37
1401;BME280;46518;48.842;8.926;2023-05-02T11:58:30;97656.91;;;14.88;69.96
1401;BME280;46518;48.842;8.926;2023-05-02T12:01:10;97662.50;;;14.97;66.54
1401;BME280;46518;48.842;8.926;2023-05-02T12:03:40;97665.19;;;15.07;68.67
1401;BME280;46518;48.842;8.926;2023-05-02T12:06:10;97655.69;;;15.32;65.22
1401;BME280;46518;48.842;8.926;2023-05-02T12:08:42;97659.34;;;15.00;66.45
1401;BME280;46518;48.842;8.926;2023-05-02T12:11:12;97664.34;;;14.97;66.39
1401;BME280;46518;48.842;8.926;2023-05-02T12:13:44;97668.88;;;15.01;66.42
1401;BME280;46518;48.842;8.926;2023-05-02T12:16:13;97664.13;;;15.03;62.51
1401;BME280;46518;48.842;8.926;2023-05-02T12:18:42;97668.00;;;14.75;62.95
1401;BME280;46518;48.842;8.926;2023-05-02T12:21:10;97676.41;;;14.67;63.98
1401;BME280;46518;48.842;8.926;2023-05-02T12:23:40;97659.16;;;14.59;65.76
1401;BME280;46518;48.842;8.926;2023-05-02T12:26:16;97657.69;;;14.89;69.05
1401;BME280;46518;48.842;8.926;2023-05-02T12:28:48;97665.16;;;15.02;66.96
1401;BME280;46518;48.842;8.926;2023-05-02T12:31:17;97665.16;;;15.02;67.69
1401;BME280;46518;48.842;8.926;2023-05-02T12:33:46;97668.91;;;15.17;66.55
1401;BME280;46518;48.842;8.926;2023-05-02T12:36:17;97674.75;;;15.08;62.13
1401;BME280;46518;48.842;8.926;2023-05-02T12:38:50;97660.44;;;15.20;65.00
1401;BME280;46518;48.842;8.926;2023-05-02T12:41:30;97668.72;;;15.39;63.28
1401;BME280;46518;48.842;8.926;2023-05-02T12:43:58;97672.72;;;15.57;60.50
1401;BME280;46518;48.842;8.926;2023-05-02T12:46:26;97675.69;;;15.91;66.08
1401;BME280;46518;48.842;8.926;2023-05-02T12:49:02;97671.72;;;15.78;67.73
1401;BME280;46518;48.842;8.926;2023-05-02T12:51:31;97677.56;;;15.85;61.25
1401;BME280;46518;48.842;8.926;2023-05-02T12:54:02;97675.97;;;15.89;62.50
1401;BME280;46518;48.842;8.926;2023-05-02T12:56:37;97675.94;;;16.00;63.61
1401;BME280;46518;48.842;8.926;2023-05-02T12:59:06;97670.91;;;16.03;61.68
1401;BME280;46518;48.842;8.926;2023-05-02T13:01:35;97673.00;;;16.27;59.04
1401;BME280;46518;48.842;8.926;2023-05-02T13:04:03;97667.97;;;16.10;59.24
1401;BME280;46518;48.842;8.926;2023-05-02T13:06:31;97660.56;;;15.96;58.66
1401;BME280;46518;48.842;8.926;2023-05-02T13:09:04;97669.06;;;16.04;59.70
1401;BME280;46518;48.842;8.926;2023-05-02T13:11:33;97668.47;;;16.32;59.76
1401;BME280;46518;48.842;8.926;2023-05-02T13:14:01;97681.00;;;15.96;61.03
1401;BME280;46518;48.842;8.926;2023-05-02T13:16:31;97685.97;;;15.51;62.24
1401;BME280;46518;48.842;8.926;2023-05-02T13:19:03;97677.47;;;15.39;62.84
1401;BME280;46518;48.842;8.926;2023-05-02T13:21:31;97666.25;;;15.12;61.83
1401;BME280;46518;48.842;8.926;2023-05-02T13:23:59;97677.47;;;15.39;61.90
1401;BME280;46518;48.842;8.926;2023-05-02T13:26:31;97679.63;;;15.52;62.04
1401;BME280;46518;48.842;8.926;2023-05-02T13:28:59;97666.88;;;15.65;62.01
1401;BME280;46518;48.842;8.926;2023-05-02T13:31:27;97661.09;;;15.88;58.22
1401;BME280;46518;48.842;8.926;2023-05-02T13:33:55;97669.31;;;16.23;57.54
1401;BME280;46518;48.842;8.926;2023-05-02T13:36:24;97678.34;;;16.22;55.14
1401;BME280;46518;48.842;8.926;2023-05-02T13:38:53;97662.97;;;15.83;55.56